Portada
METAR-TAF:

METAR-TAF

Aeropuertos :

Aeropuerto de Perpiñán-Rivesaltes

Perpiñán, Francia

latitud: 42-44N, longitud: 002-52E, altitud: 43 m

Observación

El informe se hizo hace 26 minutos, a las 13:00 UTC
Viento 16 kt del noroeste
Temperatura 20°C
Humedad 14%
Presión 1029 hPa
Visibilidad 10 km o más
sin nubes por debajo de 1500 m y sin presencia de cumulonimbus.

METAR: LFMP 031300Z AUTO 31016KT CAVOK 20/M08 Q1029 BECMG 31015G25KT

Hora: 14:26 (13:26 UTC)

Pronóstico

El informe se hizo hace 5 horas y 26 minutos, a las 08:00 UTC
Pronóstico válido del 03 a las 09 UTC al 04 a las 09 UTC
Viento 15 kt del noroeste con ráfagas de 25 kt
Visibilidad 10 km o más
sin nubes por debajo de 1500 m y sin presencia de cumulonimbus.
Probabilidad 30% :
Temporalmente
del 03 a las 21 UTC al 04 a las 09 UTC
Viento 20 kt del noroeste con ráfagas de 35 kt

TAF: LFMP 030800Z 0309/0409 31015G25KT CAVOK PROB30 TEMPO 0321/0409 31020G35KT

Observaciones y pronósticos meteorológicos de más de 4000 aeropuertos (mensajes METAR y TAF).

Los puntos amarillos y rojos representan las estaciones disponibles.

Ponga el ratón en el punto deseado para ver el nombre de la estación.

Haga clic para ver las observaciones y los pronósticos meteorológicos.

Para cambiar el mapa : haga clic en los botones verdes con una cruz de color negro para hacer un zoom, en el botón verde con un guión para alejar o en las flechas verdes para mapas adyacentes.


METAR-TAF: